createdAt,value
2023-12-20T00:01:09.327Z,1.00
2023-12-20T00:03:42.074Z,1.00
2023-12-20T00:06:10.664Z,1.00
2023-12-20T00:08:37.762Z,0.90
2023-12-20T00:11:04.788Z,0.90
2023-12-20T00:13:31.732Z,1.00
2023-12-20T00:15:58.738Z,0.90
2023-12-20T00:18:25.781Z,0.90
2023-12-20T00:20:52.682Z,0.90
2023-12-20T00:23:19.645Z,0.90
2023-12-20T00:25:46.554Z,0.80
2023-12-20T00:28:13.577Z,0.70
2023-12-20T00:30:40.903Z,0.80
2023-12-20T00:33:09.040Z,0.80
2023-12-20T00:35:37.338Z,0.70
2023-12-20T00:38:06.320Z,0.80
2023-12-20T00:40:34.175Z,0.80
2023-12-20T00:43:01.229Z,0.70
2023-12-20T00:45:28.200Z,0.70
2023-12-20T00:47:55.232Z,0.70
2023-12-20T00:50:25.050Z,0.80
2023-12-20T00:52:53.618Z,0.80
2023-12-20T00:55:20.742Z,0.80
2023-12-20T00:57:48.671Z,0.80
2023-12-20T01:00:16.184Z,0.90
2023-12-20T01:02:43.088Z,0.80
2023-12-20T01:05:10.553Z,0.80
2023-12-20T01:07:37.533Z,0.80
2023-12-20T01:10:04.844Z,0.80
2023-12-20T01:12:31.894Z,0.80
2023-12-20T01:14:59.805Z,0.60
2023-12-20T01:17:26.905Z,0.70
2023-12-20T01:19:54.841Z,0.80
2023-12-20T01:22:22.950Z,0.90
2023-12-20T01:24:49.956Z,0.80
2023-12-20T01:27:17.943Z,0.80
2023-12-20T01:29:46.183Z,0.70
2023-12-20T01:32:14.016Z,0.70
2023-12-20T01:34:41.134Z,0.80
2023-12-20T01:37:08.905Z,0.80
2023-12-20T01:39:36.910Z,0.80
2023-12-20T01:42:03.999Z,0.90
2023-12-20T01:44:32.303Z,0.90
2023-12-20T01:46:59.927Z,0.80
2023-12-20T01:49:27.347Z,0.90
2023-12-20T01:51:56.555Z,0.90
2023-12-20T01:54:23.855Z,0.90
2023-12-20T01:56:52.002Z,0.80
2023-12-20T01:59:21.220Z,0.90
2023-12-20T02:01:48.501Z,0.80
2023-12-20T02:04:16.534Z,0.80
2023-12-20T02:06:44.931Z,0.90
2023-12-20T02:09:12.269Z,0.90
2023-12-20T02:11:39.549Z,0.90
2023-12-20T02:14:06.725Z,0.90
2023-12-20T02:16:33.716Z,0.90
2023-12-20T02:19:00.841Z,1.00
2023-12-20T02:21:33.826Z,1.10
2023-12-20T02:24:00.732Z,1.60
2023-12-20T02:26:28.074Z,2.50
2023-12-20T02:28:58.019Z,2.90
2023-12-20T02:31:25.977Z,3.70
2023-12-20T02:33:52.982Z,4.20
2023-12-20T02:36:20.844Z,4.60
2023-12-20T02:38:48.052Z,4.90
2023-12-20T02:41:17.998Z,5.40
2023-12-20T02:43:45.308Z,5.80
2023-12-20T02:46:12.965Z,5.80
2023-12-20T02:48:40.136Z,5.90
2023-12-20T02:51:07.124Z,6.00
2023-12-20T02:53:35.407Z,6.20
2023-12-20T02:56:02.337Z,6.40
2023-12-20T02:58:29.995Z,6.40
2023-12-20T03:00:57.041Z,6.50
2023-12-20T03:03:24.770Z,6.60
2023-12-20T03:05:51.848Z,6.60
2023-12-20T03:08:20.035Z,6.70
2023-12-20T03:10:47.876Z,6.70
2023-12-20T03:13:16.201Z,6.80
2023-12-20T03:15:43.966Z,6.90
2023-12-20T03:18:12.994Z,6.80
2023-12-20T03:20:40.027Z,6.80
2023-12-20T03:23:07.039Z,6.80
2023-12-20T03:25:34.838Z,6.70
2023-12-20T03:28:02.075Z,6.70
2023-12-20T03:30:29.822Z,6.80
2023-12-20T03:32:58.047Z,6.80
2023-12-20T03:35:24.990Z,6.80
2023-12-20T03:37:51.936Z,6.80
2023-12-20T03:40:19.947Z,6.80
2023-12-20T03:42:48.414Z,6.90
2023-12-20T03:45:15.809Z,6.90
2023-12-20T03:47:43.497Z,6.90
2023-12-20T03:50:11.853Z,6.90
2023-12-20T03:52:38.859Z,6.90
2023-12-20T03:55:07.580Z,6.90
2023-12-20T03:57:34.514Z,7.00
2023-12-20T04:00:01.852Z,7.00
2023-12-20T04:02:40.046Z,6.90
2023-12-20T04:05:07.895Z,6.90
2023-12-20T04:07:35.380Z,6.90
2023-12-20T04:10:02.942Z,6.90
2023-12-20T04:12:30.022Z,6.90
2023-12-20T04:14:57.407Z,7.00
2023-12-20T04:17:24.642Z,6.90
2023-12-20T04:19:52.528Z,6.90
2023-12-20T04:22:20.190Z,6.90
2023-12-20T04:24:47.280Z,6.90
2023-12-20T04:27:14.199Z,6.90
2023-12-20T04:29:41.207Z,6.90
2023-12-20T04:32:08.237Z,7.10
2023-12-20T04:34:35.680Z,7.20
2023-12-20T04:37:03.201Z,7.30
2023-12-20T04:39:30.284Z,7.40
2023-12-20T04:41:57.341Z,7.30
2023-12-20T04:44:24.805Z,7.40
2023-12-20T04:46:51.740Z,7.50
2023-12-20T04:49:18.758Z,7.50
2023-12-20T04:51:45.762Z,7.50
2023-12-20T04:54:12.850Z,7.50
2023-12-20T04:56:40.178Z,7.50
2023-12-20T04:59:07.101Z,7.40
2023-12-20T05:01:34.215Z,7.40
2023-12-20T05:04:01.848Z,7.40
2023-12-20T05:06:29.806Z,7.40
2023-12-20T05:08:56.737Z,7.40
2023-12-20T05:11:23.818Z,7.40
2023-12-20T05:13:50.999Z,7.50
2023-12-20T05:16:20.084Z,7.50
2023-12-20T05:18:51.138Z,7.40
2023-12-20T05:21:18.082Z,7.40
2023-12-20T05:23:44.993Z,7.40
2023-12-20T05:26:11.951Z,7.40
2023-12-20T05:28:38.865Z,7.50
2023-12-20T05:31:05.840Z,7.40
2023-12-20T05:33:33.918Z,7.40
2023-12-20T05:36:05.189Z,7.50
2023-12-20T05:38:32.138Z,7.50
2023-12-20T05:40:59.078Z,7.50
2023-12-20T05:43:25.966Z,7.60
2023-12-20T05:45:52.952Z,7.60
2023-12-20T05:48:20.986Z,7.60
2023-12-20T05:50:47.887Z,7.60
2023-12-20T05:53:15.151Z,7.70
2023-12-20T05:55:42.798Z,7.70
2023-12-20T05:58:09.941Z,7.80
2023-12-20T06:00:36.969Z,7.80
2023-12-20T06:03:06.099Z,7.80
2023-12-20T06:05:34.310Z,7.90
2023-12-20T06:08:04.095Z,7.90
2023-12-20T06:10:31.159Z,7.90
2023-12-20T06:12:59.933Z,7.90
2023-12-20T06:15:26.878Z,7.90
2023-12-20T06:17:53.834Z,7.90
2023-12-20T06:20:20.877Z,8.00
2023-12-20T06:22:47.993Z,7.90
2023-12-20T06:25:15.597Z,7.90
2023-12-20T06:27:42.795Z,7.90
2023-12-20T06:30:10.537Z,8.00
2023-12-20T06:32:38.965Z,8.00
2023-12-20T06:35:06.599Z,8.00
2023-12-20T06:37:33.514Z,8.00
2023-12-20T06:40:00.922Z,8.00
2023-12-20T06:42:30.246Z,8.00
2023-12-20T06:44:58.451Z,8.00
2023-12-20T06:47:25.866Z,8.00
2023-12-20T06:49:53.014Z,8.00
2023-12-20T06:52:20.186Z,7.90
2023-12-20T06:54:47.604Z,8.00
2023-12-20T06:57:14.691Z,8.00
2023-12-20T06:59:45.545Z,8.10
2023-12-20T07:02:15.167Z,8.10
2023-12-20T07:04:42.919Z,8.10
2023-12-20T07:07:10.265Z,8.20
2023-12-20T07:09:39.697Z,8.20
2023-12-20T07:12:06.927Z,8.10
2023-12-20T07:14:34.324Z,8.10
2023-12-20T07:17:01.291Z,8.20
2023-12-20T07:19:28.280Z,8.10
2023-12-20T07:21:55.887Z,8.10
2023-12-20T07:24:22.933Z,8.00
2023-12-20T07:26:49.942Z,8.10
2023-12-20T07:29:17.126Z,8.00
2023-12-20T07:31:44.099Z,8.00
2023-12-20T07:34:11.403Z,7.90
2023-12-20T07:36:38.591Z,7.80
2023-12-20T07:39:05.540Z,7.80
2023-12-20T07:41:33.538Z,7.80
2023-12-20T07:44:00.603Z,7.80
2023-12-20T07:46:29.059Z,7.70
2023-12-20T07:48:56.254Z,7.60
2023-12-20T07:51:23.684Z,7.50
2023-12-20T07:53:50.943Z,7.50
2023-12-20T07:56:19.876Z,7.40
2023-12-20T07:58:52.444Z,7.40
2023-12-20T08:01:22.475Z,7.30
2023-12-20T08:03:51.763Z,7.40
2023-12-20T08:06:19.225Z,7.40
2023-12-20T08:08:52.501Z,7.40
2023-12-20T08:11:22.897Z,7.40
2023-12-20T08:13:53.367Z,7.40
2023-12-20T08:16:20.517Z,7.40
2023-12-20T08:18:49.039Z,7.40
2023-12-20T08:21:16.135Z,7.40
2023-12-20T08:23:44.630Z,7.40
2023-12-20T08:26:12.881Z,7.50
2023-12-20T08:28:39.925Z,7.40
2023-12-20T08:31:08.000Z,7.40
2023-12-20T08:33:35.875Z,7.40
2023-12-20T08:36:06.394Z,7.50
2023-12-20T08:38:33.333Z,7.50
2023-12-20T08:41:00.210Z,7.50
2023-12-20T08:43:27.302Z,7.50
2023-12-20T08:45:54.271Z,7.50
2023-12-20T08:48:21.941Z,7.40
2023-12-20T08:50:51.605Z,7.40
2023-12-20T08:53:19.239Z,7.50
2023-12-20T08:55:46.973Z,7.40
2023-12-20T08:58:14.437Z,7.40
2023-12-20T09:00:41.790Z,7.30
2023-12-20T09:03:09.330Z,7.30
2023-12-20T09:05:36.427Z,7.30
2023-12-20T09:08:03.658Z,7.20
2023-12-20T09:10:30.998Z,7.20
2023-12-20T09:12:58.635Z,7.20
2023-12-20T09:15:27.140Z,7.30
2023-12-20T09:17:54.979Z,7.30
2023-12-20T09:20:22.538Z,7.20
2023-12-20T09:22:49.491Z,7.10
2023-12-20T09:25:18.727Z,7.10
2023-12-20T09:27:46.014Z,7.20
2023-12-20T09:30:13.609Z,7.20
2023-12-20T09:32:52.916Z,7.20
2023-12-20T09:35:20.014Z,7.20
2023-12-20T09:37:48.308Z,7.20
2023-12-20T09:40:15.883Z,7.20
2023-12-20T09:43:00.129Z,7.20
2023-12-20T09:45:27.608Z,7.20
2023-12-20T09:47:55.920Z,7.00
2023-12-20T09:50:23.726Z,7.00
2023-12-20T09:52:57.374Z,6.70
2023-12-20T09:55:26.902Z,6.80
2023-12-20T09:57:54.095Z,6.70
2023-12-20T10:00:21.289Z,6.60
2023-12-20T10:03:01.731Z,6.50
2023-12-20T10:05:34.238Z,6.30
2023-12-20T10:08:03.283Z,6.40
2023-12-20T10:10:38.376Z,6.40
2023-12-20T10:13:13.346Z,6.50
2023-12-20T10:15:42.311Z,6.30
2023-12-20T10:18:10.434Z,6.30
2023-12-20T10:20:37.946Z,6.20
2023-12-20T10:23:05.145Z,6.20
2023-12-20T10:25:33.345Z,6.30
2023-12-20T10:28:12.744Z,6.30
2023-12-20T10:30:42.207Z,6.30
2023-12-20T10:33:11.143Z,6.40
2023-12-20T10:35:45.101Z,6.40
2023-12-20T10:38:15.687Z,6.40
2023-12-20T10:40:44.300Z,6.40
2023-12-20T10:43:12.426Z,6.50
2023-12-20T10:45:39.732Z,6.40
2023-12-20T10:48:07.112Z,6.40
2023-12-20T10:50:37.278Z,6.50
2023-12-20T10:53:04.568Z,6.90
2023-12-20T10:55:31.845Z,6.70
2023-12-20T10:58:03.700Z,6.60
2023-12-20T11:00:32.659Z,6.70
2023-12-20T11:03:05.466Z,6.70
2023-12-20T11:05:53.678Z,6.80
2023-12-20T11:08:40.879Z,6.80
2023-12-20T11:11:26.597Z,6.80
2023-12-20T11:14:06.497Z,6.70
2023-12-20T11:16:41.658Z,6.70
2023-12-20T11:19:15.938Z,6.80
2023-12-20T11:21:43.104Z,6.80
2023-12-20T11:24:11.100Z,6.80
2023-12-20T11:26:38.177Z,6.80
2023-12-20T11:29:40.926Z,6.80
2023-12-20T11:32:34.433Z,6.90
2023-12-20T11:35:18.085Z,6.90
2023-12-20T11:37:46.128Z,6.90
2023-12-20T11:40:18.629Z,6.90
2023-12-20T11:42:49.551Z,7.00
2023-12-20T11:45:22.890Z,7.10
2023-12-20T11:47:52.013Z,7.10
2023-12-20T11:50:20.433Z,7.10
2023-12-20T11:52:48.365Z,7.10
2023-12-20T11:55:15.502Z,7.10
2023-12-20T11:57:44.554Z,7.20
2023-12-20T12:00:12.201Z,7.30
2023-12-20T12:02:39.142Z,7.40
2023-12-20T12:05:06.957Z,7.50
2023-12-20T12:07:35.822Z,7.50
2023-12-20T12:10:04.919Z,7.80
2023-12-20T12:12:33.576Z,7.80
2023-12-20T12:15:00.891Z,7.60
2023-12-20T12:17:28.620Z,7.70
2023-12-20T12:20:07.179Z,7.70
2023-12-20T12:22:34.885Z,7.80
2023-12-20T12:25:12.556Z,7.70
2023-12-20T12:27:46.139Z,7.70
2023-12-20T12:30:14.845Z,7.70
2023-12-20T12:32:42.454Z,7.60
2023-12-20T12:35:10.904Z,7.70
2023-12-20T12:37:42.103Z,7.60
2023-12-20T12:40:14.482Z,7.60
2023-12-20T12:42:44.326Z,7.50
2023-12-20T12:45:15.112Z,7.50
2023-12-20T12:47:42.485Z,7.50
2023-12-20T12:50:10.253Z,7.50
2023-12-20T12:52:37.434Z,7.40
2023-12-20T12:55:06.128Z,7.40
2023-12-20T12:57:34.807Z,7.40
2023-12-20T13:00:02.187Z,7.40
2023-12-20T13:02:29.194Z,7.50
2023-12-20T13:04:56.233Z,7.40
2023-12-20T13:07:23.332Z,7.30
2023-12-20T13:09:50.431Z,7.40
2023-12-20T13:12:17.359Z,7.30
2023-12-20T13:14:44.322Z,7.40
2023-12-20T13:17:11.755Z,7.40
2023-12-20T13:19:39.124Z,7.40
2023-12-20T13:22:06.221Z,7.40
2023-12-20T13:24:33.646Z,7.30
2023-12-20T13:27:00.617Z,7.30
2023-12-20T13:29:30.528Z,7.30
2023-12-20T13:31:58.791Z,7.40
2023-12-20T13:34:26.153Z,7.40
2023-12-20T13:36:53.437Z,7.30
2023-12-20T13:39:20.398Z,7.30
2023-12-20T13:41:47.366Z,7.20
2023-12-20T13:44:14.726Z,7.20
2023-12-20T13:46:42.816Z,7.30
2023-12-20T13:49:10.049Z,7.20
2023-12-20T13:51:37.161Z,7.30
2023-12-20T13:54:04.265Z,7.30
2023-12-20T13:56:32.113Z,7.40
2023-12-20T13:59:00.896Z,7.40
2023-12-20T14:01:27.948Z,7.30
2023-12-20T14:03:54.931Z,7.30
2023-12-20T14:06:21.907Z,7.20
2023-12-20T14:08:49.478Z,7.20
2023-12-20T14:11:16.883Z,7.20
2023-12-20T14:13:44.561Z,7.20
2023-12-20T14:16:12.098Z,7.20
2023-12-20T14:18:41.268Z,7.10
2023-12-20T14:21:08.265Z,7.10
2023-12-20T14:23:35.274Z,7.00
2023-12-20T14:26:03.451Z,6.90
2023-12-20T14:28:30.645Z,7.00
2023-12-20T14:30:57.785Z,6.90
2023-12-20T14:33:25.361Z,6.90
2023-12-20T14:35:52.264Z,6.90
2023-12-20T14:38:19.648Z,6.80
2023-12-20T14:40:46.616Z,7.00
2023-12-20T14:43:13.733Z,7.00
2023-12-20T14:45:40.711Z,7.00
2023-12-20T14:48:08.234Z,6.90
2023-12-20T14:50:35.327Z,7.00
2023-12-20T14:53:02.264Z,6.90
2023-12-20T14:55:31.000Z,6.90
2023-12-20T14:57:58.285Z,6.90
2023-12-20T15:00:25.248Z,6.80
2023-12-20T15:02:52.360Z,6.80
2023-12-20T15:05:19.761Z,6.80
2023-12-20T15:07:49.316Z,6.80
2023-12-20T15:10:18.208Z,6.80
2023-12-20T15:12:46.139Z,6.80
2023-12-20T15:15:13.216Z,6.90
2023-12-20T15:17:40.333Z,6.90
2023-12-20T15:20:07.627Z,6.80
2023-12-20T15:22:35.180Z,6.90
2023-12-20T15:25:02.908Z,6.90
2023-12-20T15:27:30.090Z,7.00
2023-12-20T15:29:57.213Z,7.00
2023-12-20T15:32:24.190Z,6.90
2023-12-20T15:34:52.519Z,6.90
2023-12-20T15:37:19.623Z,6.90
2023-12-20T15:39:46.774Z,6.90
2023-12-20T15:42:13.800Z,6.90
2023-12-20T15:44:40.797Z,6.90
2023-12-20T15:47:08.367Z,7.00
2023-12-20T15:49:35.778Z,7.00
2023-12-20T15:52:06.916Z,7.00
2023-12-20T15:54:34.326Z,7.00
2023-12-20T15:57:01.309Z,7.00
2023-12-20T15:59:28.269Z,7.00
2023-12-20T16:01:55.535Z,7.10
2023-12-20T16:04:22.850Z,7.00
2023-12-20T16:06:51.264Z,7.00
2023-12-20T16:09:18.283Z,7.00
2023-12-20T16:11:45.760Z,7.00
2023-12-20T16:14:18.560Z,7.00
2023-12-20T16:16:46.000Z,7.00
2023-12-20T16:19:13.320Z,7.00
2023-12-20T16:21:40.299Z,6.90
2023-12-20T16:24:07.724Z,7.00
2023-12-20T16:26:35.784Z,6.90
2023-12-20T16:29:02.906Z,6.90
2023-12-20T16:31:30.155Z,6.90
2023-12-20T16:33:57.805Z,6.90
2023-12-20T16:36:24.884Z,6.80
2023-12-20T16:38:51.872Z,6.80
2023-12-20T16:41:19.129Z,6.70
2023-12-20T16:43:46.927Z,6.70
2023-12-20T16:46:14.623Z,6.70
2023-12-20T16:48:41.651Z,6.70
2023-12-20T16:51:08.609Z,6.60
2023-12-20T16:53:35.640Z,6.60
2023-12-20T16:56:02.615Z,6.60
2023-12-20T16:58:29.884Z,6.60
2023-12-20T17:00:58.269Z,6.50
2023-12-20T17:03:27.419Z,6.40
2023-12-20T17:05:54.570Z,6.50
2023-12-20T17:08:21.594Z,6.50
2023-12-20T17:10:48.733Z,6.50
2023-12-20T17:13:15.860Z,6.50
2023-12-20T17:15:42.896Z,6.40
2023-12-20T17:18:12.321Z,6.50
2023-12-20T17:20:39.446Z,6.40
2023-12-20T17:23:06.746Z,6.30
2023-12-20T17:25:40.474Z,6.20
2023-12-20T17:28:08.149Z,6.20
2023-12-20T17:30:35.813Z,6.20
2023-12-20T17:33:05.133Z,6.10
2023-12-20T17:35:32.124Z,6.10
2023-12-20T17:37:59.131Z,6.00
2023-12-20T17:40:26.100Z,6.00
2023-12-20T17:42:53.218Z,6.00
2023-12-20T17:45:20.149Z,5.90
2023-12-20T17:47:50.532Z,5.90
2023-12-20T17:50:17.795Z,5.90
2023-12-20T17:52:45.011Z,5.90
2023-12-20T17:55:12.248Z,5.90
2023-12-20T17:57:39.227Z,5.80
2023-12-20T18:00:24.242Z,5.90
2023-12-20T18:02:53.612Z,5.80
2023-12-20T18:05:22.586Z,5.80
2023-12-20T18:07:51.927Z,5.80
2023-12-20T18:10:20.719Z,5.80
2023-12-20T18:12:49.058Z,5.80
2023-12-20T18:15:16.797Z,5.80
2023-12-20T18:17:44.555Z,5.80
2023-12-20T18:20:14.522Z,5.70
2023-12-20T18:22:43.760Z,5.80
2023-12-20T18:25:11.545Z,5.70
2023-12-20T18:27:41.948Z,5.70
2023-12-20T18:30:15.857Z,5.70
2023-12-20T18:32:46.553Z,5.70
2023-12-20T18:35:14.980Z,5.80
2023-12-20T18:37:43.104Z,5.80
2023-12-20T18:40:12.111Z,5.80
2023-12-20T18:42:41.739Z,5.80
2023-12-20T18:45:10.067Z,5.90
2023-12-20T18:47:37.882Z,5.90
2023-12-20T18:50:10.100Z,5.90
2023-12-20T18:52:38.573Z,5.80
2023-12-20T18:55:06.635Z,5.90
2023-12-20T18:57:34.857Z,5.80
2023-12-20T19:00:04.972Z,5.80
2023-12-20T19:02:38.217Z,5.80
2023-12-20T19:05:07.116Z,5.80
2023-12-20T19:07:35.217Z,5.90
2023-12-20T19:10:03.392Z,5.90
2023-12-20T19:12:31.385Z,5.80
2023-12-20T19:14:59.343Z,5.80
2023-12-20T19:17:27.307Z,5.80
2023-12-20T19:19:55.496Z,5.80
2023-12-20T19:22:23.912Z,5.80
2023-12-20T19:24:52.079Z,5.70
2023-12-20T19:27:20.051Z,5.80
2023-12-20T19:29:49.558Z,5.80
2023-12-20T19:32:17.889Z,5.70
2023-12-20T19:34:46.045Z,5.80
2023-12-20T19:37:14.205Z,5.70
2023-12-20T19:39:43.358Z,5.70
2023-12-20T19:42:12.809Z,5.70
2023-12-20T19:44:41.987Z,5.70
2023-12-20T19:47:11.583Z,5.80
2023-12-20T19:49:42.098Z,5.70
2023-12-20T19:52:12.290Z,5.70
2023-12-20T19:54:42.160Z,5.70
2023-12-20T19:57:12.347Z,5.80
2023-12-20T19:59:41.381Z,5.80
2023-12-20T20:02:11.022Z,5.80
2023-12-20T20:04:41.024Z,5.80
2023-12-20T20:07:16.363Z,5.90
2023-12-20T20:09:47.304Z,5.90
2023-12-20T20:12:17.065Z,5.80
2023-12-20T20:14:45.338Z,5.80
2023-12-20T20:17:13.582Z,5.80
2023-12-20T20:19:42.239Z,5.80
2023-12-20T20:22:10.455Z,5.80
2023-12-20T20:24:38.912Z,5.70
2023-12-20T20:27:07.023Z,5.70
2023-12-20T20:29:35.129Z,5.80
2023-12-20T20:32:03.402Z,5.70
2023-12-20T20:34:31.645Z,5.70
2023-12-20T20:36:59.793Z,5.70
2023-12-20T20:39:27.912Z,5.70
2023-12-20T20:41:56.039Z,5.60
2023-12-20T20:44:24.192Z,5.60
2023-12-20T20:46:52.669Z,5.60
2023-12-20T20:49:20.958Z,5.60
2023-12-20T20:51:49.110Z,5.60
2023-12-20T20:54:19.149Z,5.70
2023-12-20T20:56:48.155Z,5.70
2023-12-20T20:59:17.616Z,5.60
2023-12-20T21:01:50.241Z,5.70
2023-12-20T21:04:17.814Z,5.70
2023-12-20T21:06:48.587Z,5.70
2023-12-20T21:09:15.543Z,5.70
2023-12-20T21:11:43.041Z,5.70
2023-12-20T21:14:10.002Z,5.70
2023-12-20T21:16:37.138Z,5.70
2023-12-20T21:19:07.129Z,5.70
2023-12-20T21:21:34.693Z,5.70
2023-12-20T21:24:01.716Z,5.70
2023-12-20T21:26:28.633Z,5.80
2023-12-20T21:28:56.296Z,5.80
2023-12-20T21:31:23.406Z,5.80
2023-12-20T21:33:53.750Z,5.80
2023-12-20T21:36:21.331Z,5.80
2023-12-20T21:38:48.237Z,5.80
2023-12-20T21:41:22.943Z,5.80
2023-12-20T21:43:51.129Z,5.80
2023-12-20T21:46:18.573Z,5.80
2023-12-20T21:48:45.677Z,5.80
2023-12-20T21:51:12.905Z,5.90
2023-12-20T21:53:40.632Z,5.80
2023-12-20T21:56:07.781Z,5.80
2023-12-20T21:58:34.786Z,5.90
2023-12-20T22:01:03.887Z,5.80
2023-12-20T22:03:33.578Z,5.70
2023-12-20T22:06:00.649Z,5.80
2023-12-20T22:08:27.724Z,5.70
2023-12-20T22:10:57.455Z,5.70
2023-12-20T22:13:24.537Z,5.70
2023-12-20T22:15:51.761Z,5.70
2023-12-20T22:18:18.837Z,5.70
2023-12-20T22:20:45.762Z,5.80
2023-12-20T22:23:12.827Z,5.80
2023-12-20T22:25:39.801Z,5.80
2023-12-20T22:28:07.134Z,5.70
2023-12-20T22:30:34.209Z,5.80
2023-12-20T22:33:01.237Z,5.80
2023-12-20T22:35:28.244Z,5.80
2023-12-20T22:37:55.596Z,5.80
2023-12-20T22:43:43.928Z,5.80
2023-12-20T22:46:11.033Z,5.80
2023-12-20T22:48:40.594Z,5.80
2023-12-20T22:51:08.700Z,5.90
2023-12-20T22:53:35.686Z,5.90
2023-12-20T22:56:02.703Z,5.90
2023-12-20T22:58:29.641Z,5.90
2023-12-20T23:00:56.691Z,5.90
2023-12-20T23:03:27.071Z,5.90
2023-12-20T23:05:54.088Z,5.90
2023-12-20T23:08:21.082Z,5.90
2023-12-20T23:10:48.120Z,5.90
2023-12-20T23:13:15.267Z,5.90
2023-12-20T23:15:42.305Z,5.90
2023-12-20T23:18:09.386Z,6.00
2023-12-20T23:20:36.580Z,6.00
2023-12-20T23:23:03.530Z,5.90
2023-12-20T23:25:30.598Z,6.00
2023-12-20T23:27:57.692Z,6.00
2023-12-20T23:30:24.806Z,6.00
2023-12-20T23:32:51.981Z,6.00
2023-12-20T23:35:19.332Z,6.00
2023-12-20T23:37:47.523Z,6.00
2023-12-20T23:40:14.695Z,6.00
2023-12-20T23:42:41.768Z,6.10
2023-12-20T23:45:09.200Z,6.10
2023-12-20T23:47:36.247Z,6.10
2023-12-20T23:50:03.602Z,6.10
2023-12-20T23:52:31.201Z,6.10
2023-12-20T23:54:58.159Z,6.10
2023-12-20T23:57:25.119Z,6.10
2023-12-20T23:59:52.123Z,6.00
